Portada
METAR-TAF:

METAR-TAF

Aeroports :

Aoba Island, Vanuatu

latitud: 15-18-24S, longitud: 167-58-02E, altitud: 51 m

Observació

L'informe es va fer fa 2 hores i 27 minuts, a les 06:00 UTC
Vent 5 kt del Sud/Sud-Est
Temperatura 27°C
Humitat 74%
Pressió 1013 hPa

METAR: NVSG 120600Z AUTO 16005KT //// // NCD 27/22 Q1013

Hora: 19:27 (08:27 UTC)

Pronòstic

L'informe es va fer fa 3 hores i 57 minuts, a les 04:30 UTC
Pronòstic vàlid del 12 a les 06 UTC al 13 a les 06 UTC
Vent 5 kt del Sud/Sud-Est
Visibilitat 10 km o més
Núvols disperses a una alçada de 2000 ft
Cel ennuvolat a una alçada de 4000 ft
Probabilitat 30%
entre IN i TE UTC
Visibilitat: 8000 m
Escasses núvols a una alçada de 800 ft
Cel ennuvolat a una alçada de 1600 ft
xàfecs de pluja
Evolucionant progressivament
l' 12 a les 07 UTC al 12 a les 09 UTC
Vent 3 kt amb direcció variable

TAF: NVSG 120430Z 1206/1306 15005KT 9999 SCT020 BKN040 PROB30 INTER 1206/1212 8000 SHRA FEW008 BKN016 BECMG 1207/1209 VRB03KT

Observacions i pronòstics meteorològics de més de 4000 aeroports (METAR i TAF).

Les estacions disponibles són els punts grocs i vermells al mapa.

Posi el ratolí al punt desitjat per veure el nom de l'estació.

Feu clic per veure les observacions i els pronòstics meteorològics.

Per canviar el mapa: feu clic els botons verds amb una creu de color negre per apropar; al botó verd amb un guió per allunyar la imatge; o en les fletxes verdes per a mapes adjacents.


METAR-TAF: